sensor_id;sensor_type;location;lat;lon;timestamp;P1;durP1;ratioP1;P2;durP2;ratioP2
4597;SDS011;62772;48.646;8.906;2023-10-19T00:00:37;24.77;;;14.60;;
4597;SDS011;62772;48.646;8.906;2023-10-19T00:05:44;23.93;;;16.13;;
4597;SDS011;62772;48.646;8.906;2023-10-19T00:10:53;22.87;;;16.43;;
4597;SDS011;62772;48.646;8.906;2023-10-19T00:16:07;26.53;;;16.77;;
4597;SDS011;62772;48.646;8.906;2023-10-19T00:21:21;23.07;;;15.40;;
4597;SDS011;62772;48.646;8.906;2023-10-19T00:26:25;26.17;;;16.83;;
4597;SDS011;62772;48.646;8.906;2023-10-19T00:31:35;22.60;;;15.80;;
4597;SDS011;62772;48.646;8.906;2023-10-19T00:36:40;23.03;;;14.93;;
4597;SDS011;62772;48.646;8.906;2023-10-19T00:41:40;22.27;;;14.23;;
4597;SDS011;62772;48.646;8.906;2023-10-19T00:46:43;20.67;;;14.47;;
4597;SDS011;62772;48.646;8.906;2023-10-19T00:51:53;22.83;;;14.37;;
4597;SDS011;62772;48.646;8.906;2023-10-19T00:57:03;23.57;;;15.53;;
4597;SDS011;62772;48.646;8.906;2023-10-19T01:02:10;22.07;;;14.47;;
4597;SDS011;62772;48.646;8.906;2023-10-19T01:07:20;25.33;;;16.90;;
4597;SDS011;62772;48.646;8.906;2023-10-19T01:12:23;27.87;;;16.60;;
4597;SDS011;62772;48.646;8.906;2023-10-19T01:17:34;25.50;;;17.30;;
4597;SDS011;62772;48.646;8.906;2023-10-19T01:22:42;26.60;;;17.20;;
4597;SDS011;62772;48.646;8.906;2023-10-19T01:27:46;24.70;;;16.40;;
4597;SDS011;62772;48.646;8.906;2023-10-19T01:32:47;20.87;;;15.30;;
4597;SDS011;62772;48.646;8.906;2023-10-19T01:37:48;28.80;;;16.77;;
4597;SDS011;62772;48.646;8.906;2023-10-19T01:42:48;28.87;;;16.53;;
4597;SDS011;62772;48.646;8.906;2023-10-19T01:47:50;25.33;;;16.90;;
4597;SDS011;62772;48.646;8.906;2023-10-19T01:52:51;28.27;;;17.10;;
4597;SDS011;62772;48.646;8.906;2023-10-19T01:57:51;26.00;;;17.47;;
4597;SDS011;62772;48.646;8.906;2023-10-19T02:02:52;25.47;;;17.10;;
4597;SDS011;62772;48.646;8.906;2023-10-19T02:07:52;25.70;;;16.90;;
4597;SDS011;62772;48.646;8.906;2023-10-19T02:12:53;25.67;;;16.50;;
4597;SDS011;62772;48.646;8.906;2023-10-19T02:17:55;26.00;;;16.17;;
4597;SDS011;62772;48.646;8.906;2023-10-19T02:23:00;22.17;;;15.10;;
4597;SDS011;62772;48.646;8.906;2023-10-19T02:28:04;25.67;;;16.23;;
4597;SDS011;62772;48.646;8.906;2023-10-19T02:33:09;24.90;;;15.17;;
4597;SDS011;62772;48.646;8.906;2023-10-19T02:38:09;21.20;;;14.40;;
4597;SDS011;62772;48.646;8.906;2023-10-19T02:43:10;21.67;;;13.47;;
4597;SDS011;62772;48.646;8.906;2023-10-19T02:48:11;19.03;;;12.33;;
4597;SDS011;62772;48.646;8.906;2023-10-19T02:53:13;20.40;;;12.90;;
4597;SDS011;62772;48.646;8.906;2023-10-19T02:58:13;17.57;;;12.13;;
4597;SDS011;62772;48.646;8.906;2023-10-19T03:03:14;20.40;;;11.50;;
4597;SDS011;62772;48.646;8.906;2023-10-19T03:08:14;16.67;;;11.00;;
4597;SDS011;62772;48.646;8.906;2023-10-19T03:13:16;15.43;;;10.03;;
4597;SDS011;62772;48.646;8.906;2023-10-19T03:18:16;19.90;;;11.20;;
4597;SDS011;62772;48.646;8.906;2023-10-19T03:23:17;14.60;;;10.67;;
4597;SDS011;62772;48.646;8.906;2023-10-19T03:28:17;17.30;;;9.73;;
4597;SDS011;62772;48.646;8.906;2023-10-19T03:33:19;12.80;;;9.23;;
4597;SDS011;62772;48.646;8.906;2023-10-19T03:38:19;16.13;;;8.23;;
4597;SDS011;62772;48.646;8.906;2023-10-19T03:43:23;17.97;;;8.00;;
4597;SDS011;62772;48.646;8.906;2023-10-19T03:48:23;13.10;;;8.30;;
4597;SDS011;62772;48.646;8.906;2023-10-19T03:53:27;12.30;;;8.20;;
4597;SDS011;62772;48.646;8.906;2023-10-19T03:58:27;12.50;;;8.20;;
4597;SDS011;62772;48.646;8.906;2023-10-19T04:03:30;11.33;;;7.50;;
4597;SDS011;62772;48.646;8.906;2023-10-19T04:08:31;10.70;;;7.30;;
4597;SDS011;62772;48.646;8.906;2023-10-19T04:13:35;13.33;;;7.80;;
4597;SDS011;62772;48.646;8.906;2023-10-19T04:18:37;13.03;;;7.90;;
4597;SDS011;62772;48.646;8.906;2023-10-19T04:23:38;12.93;;;7.77;;
4597;SDS011;62772;48.646;8.906;2023-10-19T04:28:42;12.87;;;8.47;;
4597;SDS011;62772;48.646;8.906;2023-10-19T04:33:45;14.90;;;9.17;;
4597;SDS011;62772;48.646;8.906;2023-10-19T04:38:46;31.73;;;17.53;;
4597;SDS011;62772;48.646;8.906;2023-10-19T04:43:47;50.17;;;24.30;;
4597;SDS011;62772;48.646;8.906;2023-10-19T04:48:50;14.73;;;9.90;;
4597;SDS011;62772;48.646;8.906;2023-10-19T04:53:50;16.93;;;10.57;;
4597;SDS011;62772;48.646;8.906;2023-10-19T04:58:51;16.80;;;10.93;;
4597;SDS011;62772;48.646;8.906;2023-10-19T05:03:51;15.70;;;10.57;;
4597;SDS011;62772;48.646;8.906;2023-10-19T05:08:51;18.17;;;10.60;;
4597;SDS011;62772;48.646;8.906;2023-10-19T05:13:52;18.10;;;10.07;;
4597;SDS011;62772;48.646;8.906;2023-10-19T05:18:52;16.73;;;10.50;;
4597;SDS011;62772;48.646;8.906;2023-10-19T05:23:53;15.53;;;10.30;;
4597;SDS011;62772;48.646;8.906;2023-10-19T05:28:53;17.07;;;10.50;;
4597;SDS011;62772;48.646;8.906;2023-10-19T05:33:54;16.60;;;10.83;;
4597;SDS011;62772;48.646;8.906;2023-10-19T05:38:56;17.20;;;10.43;;
4597;SDS011;62772;48.646;8.906;2023-10-19T05:43:56;20.73;;;9.87;;
4597;SDS011;62772;48.646;8.906;2023-10-19T05:48:57;16.43;;;11.07;;
4597;SDS011;62772;48.646;8.906;2023-10-19T05:53:58;20.23;;;9.93;;
4597;SDS011;62772;48.646;8.906;2023-10-19T05:59:04;15.63;;;9.63;;
4597;SDS011;62772;48.646;8.906;2023-10-19T06:04:06;16.90;;;10.03;;
4597;SDS011;62772;48.646;8.906;2023-10-19T06:09:07;15.17;;;9.40;;
4597;SDS011;62772;48.646;8.906;2023-10-19T06:14:11;17.43;;;10.33;;
4597;SDS011;62772;48.646;8.906;2023-10-19T06:19:11;16.10;;;11.20;;
4597;SDS011;62772;48.646;8.906;2023-10-19T06:24:12;16.57;;;10.50;;
4597;SDS011;62772;48.646;8.906;2023-10-19T06:29:14;20.57;;;13.77;;
4597;SDS011;62772;48.646;8.906;2023-10-19T06:34:15;25.60;;;17.60;;
4597;SDS011;62772;48.646;8.906;2023-10-19T06:39:17;33.87;;;21.43;;
4597;SDS011;62772;48.646;8.906;2023-10-19T06:44:18;19.67;;;14.00;;
4597;SDS011;62772;48.646;8.906;2023-10-19T06:49:18;22.43;;;13.50;;
4597;SDS011;62772;48.646;8.906;2023-10-19T06:54:19;19.00;;;12.67;;
4597;SDS011;62772;48.646;8.906;2023-10-19T06:59:20;22.23;;;13.60;;
4597;SDS011;62772;48.646;8.906;2023-10-19T07:04:20;29.43;;;18.33;;
4597;SDS011;62772;48.646;8.906;2023-10-19T07:09:22;37.43;;;22.10;;
4597;SDS011;62772;48.646;8.906;2023-10-19T07:14:23;36.73;;;22.07;;
4597;SDS011;62772;48.646;8.906;2023-10-19T07:19:24;29.93;;;17.90;;
4597;SDS011;62772;48.646;8.906;2023-10-19T07:24:24;21.47;;;14.63;;
4597;SDS011;62772;48.646;8.906;2023-10-19T07:29:24;23.90;;;13.33;;
4597;SDS011;62772;48.646;8.906;2023-10-19T07:34:25;20.23;;;13.20;;
4597;SDS011;62772;48.646;8.906;2023-10-19T07:39:28;25.50;;;13.13;;
4597;SDS011;62772;48.646;8.906;2023-10-19T07:44:29;18.03;;;12.50;;
4597;SDS011;62772;48.646;8.906;2023-10-19T07:49:30;36.90;;;20.23;;
4597;SDS011;62772;48.646;8.906;2023-10-19T07:54:30;21.10;;;14.10;;
4597;SDS011;62772;48.646;8.906;2023-10-19T07:59:34;18.03;;;11.57;;
4597;SDS011;62772;48.646;8.906;2023-10-19T08:04:35;23.27;;;12.77;;
4597;SDS011;62772;48.646;8.906;2023-10-19T08:09:36;23.23;;;14.20;;
4597;SDS011;62772;48.646;8.906;2023-10-19T08:14:36;23.53;;;14.20;;
4597;SDS011;62772;48.646;8.906;2023-10-19T08:19:37;26.33;;;14.13;;
4597;SDS011;62772;48.646;8.906;2023-10-19T08:24:37;21.37;;;12.83;;
4597;SDS011;62772;48.646;8.906;2023-10-19T08:29:38;19.70;;;12.30;;
4597;SDS011;62772;48.646;8.906;2023-10-19T08:34:39;24.57;;;13.10;;
4597;SDS011;62772;48.646;8.906;2023-10-19T08:39:41;19.03;;;11.90;;
4597;SDS011;62772;48.646;8.906;2023-10-19T08:44:43;21.07;;;13.20;;
4597;SDS011;62772;48.646;8.906;2023-10-19T08:49:43;19.13;;;12.83;;
4597;SDS011;62772;48.646;8.906;2023-10-19T08:54:44;24.17;;;11.83;;
4597;SDS011;62772;48.646;8.906;2023-10-19T08:59:45;19.63;;;11.13;;
4597;SDS011;62772;48.646;8.906;2023-10-19T09:04:47;19.27;;;10.43;;
4597;SDS011;62772;48.646;8.906;2023-10-19T09:09:48;16.70;;;11.20;;
4597;SDS011;62772;48.646;8.906;2023-10-19T09:14:49;15.93;;;9.47;;
4597;SDS011;62772;48.646;8.906;2023-10-19T09:19:50;16.17;;;9.37;;
4597;SDS011;62772;48.646;8.906;2023-10-19T09:24:51;13.20;;;8.43;;
4597;SDS011;62772;48.646;8.906;2023-10-19T09:29:53;15.00;;;8.03;;
4597;SDS011;62772;48.646;8.906;2023-10-19T09:34:54;12.23;;;7.57;;
4597;SDS011;62772;48.646;8.906;2023-10-19T09:39:55;12.50;;;7.80;;
4597;SDS011;62772;48.646;8.906;2023-10-19T09:44:59;12.40;;;7.70;;
4597;SDS011;62772;48.646;8.906;2023-10-19T09:50:05;11.40;;;7.63;;
4597;SDS011;62772;48.646;8.906;2023-10-19T09:55:14;15.03;;;8.70;;
4597;SDS011;62772;48.646;8.906;2023-10-19T10:00:23;11.20;;;7.20;;
4597;SDS011;62772;48.646;8.906;2023-10-19T10:10:42;12.90;;;7.57;;
4597;SDS011;62772;48.646;8.906;2023-10-19T10:15:43;14.90;;;8.60;;
4597;SDS011;62772;48.646;8.906;2023-10-19T10:20:48;14.67;;;8.23;;
4597;SDS011;62772;48.646;8.906;2023-10-19T10:25:49;14.40;;;8.23;;
4597;SDS011;62772;48.646;8.906;2023-10-19T10:36:14;15.43;;;8.50;;
4597;SDS011;62772;48.646;8.906;2023-10-19T10:41:23;18.60;;;12.40;;
4597;SDS011;62772;48.646;8.906;2023-10-19T10:46:32;15.93;;;9.27;;
4597;SDS011;62772;48.646;8.906;2023-10-19T10:51:32;14.10;;;9.47;;
4597;SDS011;62772;48.646;8.906;2023-10-19T10:56:39;14.23;;;8.07;;
4597;SDS011;62772;48.646;8.906;2023-10-19T11:01:41;16.80;;;8.77;;
4597;SDS011;62772;48.646;8.906;2023-10-19T11:06:49;14.97;;;8.83;;
4597;SDS011;62772;48.646;8.906;2023-10-19T11:11:50;15.40;;;8.87;;
4597;SDS011;62772;48.646;8.906;2023-10-19T11:16:54;15.90;;;8.00;;
4597;SDS011;62772;48.646;8.906;2023-10-19T11:21:55;16.20;;;8.20;;
4597;SDS011;62772;48.646;8.906;2023-10-19T11:26:55;12.83;;;8.63;;
4597;SDS011;62772;48.646;8.906;2023-10-19T11:31:59;13.07;;;8.60;;
4597;SDS011;62772;48.646;8.906;2023-10-19T11:37:00;13.37;;;8.93;;
4597;SDS011;62772;48.646;8.906;2023-10-19T11:42:03;19.23;;;8.53;;
4597;SDS011;62772;48.646;8.906;2023-10-19T11:47:04;16.93;;;8.20;;
4597;SDS011;62772;48.646;8.906;2023-10-19T11:52:05;10.17;;;7.43;;
4597;SDS011;62772;48.646;8.906;2023-10-19T11:57:07;10.97;;;7.53;;
4597;SDS011;62772;48.646;8.906;2023-10-19T12:02:07;9.40;;;5.50;;
4597;SDS011;62772;48.646;8.906;2023-10-19T12:07:09;8.50;;;5.57;;
4597;SDS011;62772;48.646;8.906;2023-10-19T12:12:10;9.63;;;5.87;;
4597;SDS011;62772;48.646;8.906;2023-10-19T12:17:11;9.53;;;5.53;;
4597;SDS011;62772;48.646;8.906;2023-10-19T12:22:11;9.93;;;5.50;;
4597;SDS011;62772;48.646;8.906;2023-10-19T12:27:13;9.53;;;6.00;;
4597;SDS011;62772;48.646;8.906;2023-10-19T12:32:14;14.67;;;7.40;;
4597;SDS011;62772;48.646;8.906;2023-10-19T12:37:14;9.83;;;7.03;;
4597;SDS011;62772;48.646;8.906;2023-10-19T12:42:15;11.10;;;7.00;;
4597;SDS011;62772;48.646;8.906;2023-10-19T12:47:16;9.93;;;7.50;;
4597;SDS011;62772;48.646;8.906;2023-10-19T12:52:17;17.73;;;8.43;;
4597;SDS011;62772;48.646;8.906;2023-10-19T12:57:18;15.27;;;8.47;;
4597;SDS011;62772;48.646;8.906;2023-10-19T13:02:20;13.40;;;8.83;;
4597;SDS011;62772;48.646;8.906;2023-10-19T13:07:21;15.80;;;8.13;;
4597;SDS011;62772;48.646;8.906;2023-10-19T13:12:22;15.80;;;8.87;;
4597;SDS011;62772;48.646;8.906;2023-10-19T13:17:23;14.47;;;9.13;;
4597;SDS011;62772;48.646;8.906;2023-10-19T13:22:25;17.70;;;9.83;;
4597;SDS011;62772;48.646;8.906;2023-10-19T13:27:25;13.70;;;9.30;;
4597;SDS011;62772;48.646;8.906;2023-10-19T13:32:30;14.50;;;8.60;;
4597;SDS011;62772;48.646;8.906;2023-10-19T13:37:31;15.90;;;9.17;;
4597;SDS011;62772;48.646;8.906;2023-10-19T13:42:32;14.00;;;9.10;;
4597;SDS011;62772;48.646;8.906;2023-10-19T13:47:34;16.23;;;11.20;;
4597;SDS011;62772;48.646;8.906;2023-10-19T13:52:35;18.13;;;13.03;;
4597;SDS011;62772;48.646;8.906;2023-10-19T13:57:36;13.53;;;8.43;;
4597;SDS011;62772;48.646;8.906;2023-10-19T14:02:36;11.73;;;7.77;;
4597;SDS011;62772;48.646;8.906;2023-10-19T14:07:37;14.00;;;9.73;;
4597;SDS011;62772;48.646;8.906;2023-10-19T14:12:40;15.90;;;10.30;;
4597;SDS011;62772;48.646;8.906;2023-10-19T14:17:44;20.13;;;11.60;;
4597;SDS011;62772;48.646;8.906;2023-10-19T14:22:48;14.90;;;9.87;;
4597;SDS011;62772;48.646;8.906;2023-10-19T14:27:54;13.97;;;9.60;;
4597;SDS011;62772;48.646;8.906;2023-10-19T14:32:59;16.90;;;10.20;;
4597;SDS011;62772;48.646;8.906;2023-10-19T14:37:59;13.57;;;8.50;;
4597;SDS011;62772;48.646;8.906;2023-10-19T14:43:01;11.23;;;6.17;;
4597;SDS011;62772;48.646;8.906;2023-10-19T14:48:02;16.80;;;8.07;;
4597;SDS011;62772;48.646;8.906;2023-10-19T14:53:04;13.40;;;8.17;;
4597;SDS011;62772;48.646;8.906;2023-10-19T14:58:04;13.90;;;7.80;;
4597;SDS011;62772;48.646;8.906;2023-10-19T15:03:06;16.50;;;9.77;;
4597;SDS011;62772;48.646;8.906;2023-10-19T15:08:09;25.40;;;9.27;;
4597;SDS011;62772;48.646;8.906;2023-10-19T15:13:10;15.60;;;9.90;;
4597;SDS011;62772;48.646;8.906;2023-10-19T15:18:10;16.27;;;9.57;;
4597;SDS011;62772;48.646;8.906;2023-10-19T15:23:11;13.03;;;7.63;;
4597;SDS011;62772;48.646;8.906;2023-10-19T15:28:11;16.73;;;7.43;;
4597;SDS011;62772;48.646;8.906;2023-10-19T15:33:12;10.03;;;6.33;;
4597;SDS011;62772;48.646;8.906;2023-10-19T15:38:12;11.33;;;6.40;;
4597;SDS011;62772;48.646;8.906;2023-10-19T15:43:13;21.10;;;10.90;;
4597;SDS011;62772;48.646;8.906;2023-10-19T15:48:13;19.70;;;11.27;;
4597;SDS011;62772;48.646;8.906;2023-10-19T15:53:14;25.70;;;14.27;;
4597;SDS011;62772;48.646;8.906;2023-10-19T15:58:15;28.10;;;15.20;;
4597;SDS011;62772;48.646;8.906;2023-10-19T16:03:16;20.40;;;10.83;;
4597;SDS011;62772;48.646;8.906;2023-10-19T16:08:16;13.03;;;7.67;;
4597;SDS011;62772;48.646;8.906;2023-10-19T16:13:16;15.33;;;9.43;;
4597;SDS011;62772;48.646;8.906;2023-10-19T16:18:17;12.10;;;7.67;;
4597;SDS011;62772;48.646;8.906;2023-10-19T16:23:17;11.17;;;6.90;;
4597;SDS011;62772;48.646;8.906;2023-10-19T16:28:18;11.47;;;7.80;;
4597;SDS011;62772;48.646;8.906;2023-10-19T16:33:19;21.43;;;12.33;;
4597;SDS011;62772;48.646;8.906;2023-10-19T16:38:19;22.33;;;12.40;;
4597;SDS011;62772;48.646;8.906;2023-10-19T16:43:20;21.73;;;12.70;;
4597;SDS011;62772;48.646;8.906;2023-10-19T16:48:20;18.60;;;12.50;;
4597;SDS011;62772;48.646;8.906;2023-10-19T16:53:21;19.47;;;13.37;;
4597;SDS011;62772;48.646;8.906;2023-10-19T16:58:21;20.30;;;13.03;;
4597;SDS011;62772;48.646;8.906;2023-10-19T17:03:22;18.83;;;12.67;;
4597;SDS011;62772;48.646;8.906;2023-10-19T17:08:23;17.90;;;11.10;;
4597;SDS011;62772;48.646;8.906;2023-10-19T17:13:24;16.07;;;11.30;;
4597;SDS011;62772;48.646;8.906;2023-10-19T17:18:26;20.37;;;12.90;;
4597;SDS011;62772;48.646;8.906;2023-10-19T17:23:27;27.23;;;16.07;;
4597;SDS011;62772;48.646;8.906;2023-10-19T17:28:28;22.80;;;13.43;;
4597;SDS011;62772;48.646;8.906;2023-10-19T17:33:28;21.40;;;14.27;;
4597;SDS011;62772;48.646;8.906;2023-10-19T17:38:31;25.40;;;15.27;;
4597;SDS011;62772;48.646;8.906;2023-10-19T17:43:32;22.40;;;14.30;;
4597;SDS011;62772;48.646;8.906;2023-10-19T17:48:33;22.27;;;15.40;;
4597;SDS011;62772;48.646;8.906;2023-10-19T17:53:33;21.97;;;15.43;;
4597;SDS011;62772;48.646;8.906;2023-10-19T17:58:34;26.90;;;17.20;;
4597;SDS011;62772;48.646;8.906;2023-10-19T18:03:36;29.97;;;19.00;;
4597;SDS011;62772;48.646;8.906;2023-10-19T18:08:38;20.80;;;14.90;;
4597;SDS011;62772;48.646;8.906;2023-10-19T18:13:39;27.70;;;17.53;;
4597;SDS011;62772;48.646;8.906;2023-10-19T18:18:40;24.00;;;16.00;;
4597;SDS011;62772;48.646;8.906;2023-10-19T18:23:43;31.80;;;20.53;;
4597;SDS011;62772;48.646;8.906;2023-10-19T18:28:47;30.83;;;16.67;;
4597;SDS011;62772;48.646;8.906;2023-10-19T18:33:47;24.90;;;15.17;;
4597;SDS011;62772;48.646;8.906;2023-10-19T18:38:48;23.93;;;14.70;;
4597;SDS011;62772;48.646;8.906;2023-10-19T18:43:48;34.73;;;18.77;;
4597;SDS011;62772;48.646;8.906;2023-10-19T18:48:51;32.17;;;19.57;;
4597;SDS011;62772;48.646;8.906;2023-10-19T18:53:51;30.17;;;19.00;;
4597;SDS011;62772;48.646;8.906;2023-10-19T18:58:53;29.50;;;20.10;;
4597;SDS011;62772;48.646;8.906;2023-10-19T19:03:55;31.20;;;21.30;;
4597;SDS011;62772;48.646;8.906;2023-10-19T19:08:56;32.57;;;19.37;;
4597;SDS011;62772;48.646;8.906;2023-10-19T19:13:56;29.60;;;19.53;;
4597;SDS011;62772;48.646;8.906;2023-10-19T19:18:57;28.23;;;18.70;;
4597;SDS011;62772;48.646;8.906;2023-10-19T19:23:57;31.63;;;18.13;;
4597;SDS011;62772;48.646;8.906;2023-10-19T19:28:58;24.87;;;17.03;;
4597;SDS011;62772;48.646;8.906;2023-10-19T19:33:59;28.77;;;19.40;;
4597;SDS011;62772;48.646;8.906;2023-10-19T19:39:00;29.67;;;20.40;;
4597;SDS011;62772;48.646;8.906;2023-10-19T19:44:01;25.00;;;16.60;;
4597;SDS011;62772;48.646;8.906;2023-10-19T19:49:01;26.20;;;16.70;;
4597;SDS011;62772;48.646;8.906;2023-10-19T19:54:03;28.83;;;17.03;;
4597;SDS011;62772;48.646;8.906;2023-10-19T19:59:03;22.43;;;14.70;;
4597;SDS011;62772;48.646;8.906;2023-10-19T20:04:04;22.63;;;14.20;;
4597;SDS011;62772;48.646;8.906;2023-10-19T20:09:05;20.93;;;13.87;;
4597;SDS011;62772;48.646;8.906;2023-10-19T20:14:11;25.43;;;14.80;;
4597;SDS011;62772;48.646;8.906;2023-10-19T20:19:11;21.33;;;14.30;;
4597;SDS011;62772;48.646;8.906;2023-10-19T20:24:13;16.33;;;11.97;;
4597;SDS011;62772;48.646;8.906;2023-10-19T20:29:14;20.37;;;12.93;;
4597;SDS011;62772;48.646;8.906;2023-10-19T20:34:14;20.63;;;13.23;;
4597;SDS011;62772;48.646;8.906;2023-10-19T20:39:16;18.20;;;12.57;;
4597;SDS011;62772;48.646;8.906;2023-10-19T20:44:19;22.67;;;15.07;;
4597;SDS011;62772;48.646;8.906;2023-10-19T20:49:24;21.60;;;15.23;;
4597;SDS011;62772;48.646;8.906;2023-10-19T20:54:25;22.17;;;15.33;;
4597;SDS011;62772;48.646;8.906;2023-10-19T20:59:25;23.90;;;15.20;;
4597;SDS011;62772;48.646;8.906;2023-10-19T21:04:26;19.13;;;14.00;;
4597;SDS011;62772;48.646;8.906;2023-10-19T21:09:26;21.20;;;13.97;;
4597;SDS011;62772;48.646;8.906;2023-10-19T21:14:27;19.53;;;13.30;;
4597;SDS011;62772;48.646;8.906;2023-10-19T21:19:27;22.90;;;14.83;;
4597;SDS011;62772;48.646;8.906;2023-10-19T21:24:28;21.77;;;14.47;;
4597;SDS011;62772;48.646;8.906;2023-10-19T21:29:28;20.77;;;13.77;;
4597;SDS011;62772;48.646;8.906;2023-10-19T21:34:32;21.60;;;14.80;;
4597;SDS011;62772;48.646;8.906;2023-10-19T21:39:32;24.70;;;16.33;;
4597;SDS011;62772;48.646;8.906;2023-10-19T21:44:33;22.47;;;15.30;;
4597;SDS011;62772;48.646;8.906;2023-10-19T21:49:37;22.97;;;14.70;;
4597;SDS011;62772;48.646;8.906;2023-10-19T21:54:38;23.67;;;15.07;;
4597;SDS011;62772;48.646;8.906;2023-10-19T21:59:38;25.73;;;16.53;;
4597;SDS011;62772;48.646;8.906;2023-10-19T22:04:39;23.90;;;14.80;;
4597;SDS011;62772;48.646;8.906;2023-10-19T22:09:39;25.17;;;16.40;;
4597;SDS011;62772;48.646;8.906;2023-10-19T22:14:39;25.50;;;14.83;;
4597;SDS011;62772;48.646;8.906;2023-10-19T22:19:40;27.43;;;15.67;;
4597;SDS011;62772;48.646;8.906;2023-10-19T22:24:40;26.17;;;16.57;;
4597;SDS011;62772;48.646;8.906;2023-10-19T22:29:44;23.70;;;16.20;;
4597;SDS011;62772;48.646;8.906;2023-10-19T22:34:44;24.53;;;16.07;;
4597;SDS011;62772;48.646;8.906;2023-10-19T22:39:44;21.37;;;14.50;;
4597;SDS011;62772;48.646;8.906;2023-10-19T22:44:46;18.20;;;12.50;;
4597;SDS011;62772;48.646;8.906;2023-10-19T22:49:46;22.73;;;13.77;;
4597;SDS011;62772;48.646;8.906;2023-10-19T22:54:47;21.50;;;12.57;;
4597;SDS011;62772;48.646;8.906;2023-10-19T22:59:47;18.37;;;12.50;;
4597;SDS011;62772;48.646;8.906;2023-10-19T23:04:48;20.13;;;13.23;;
4597;SDS011;62772;48.646;8.906;2023-10-19T23:09:49;24.03;;;14.00;;
4597;SDS011;62772;48.646;8.906;2023-10-19T23:14:49;23.50;;;13.43;;
4597;SDS011;62772;48.646;8.906;2023-10-19T23:19:49;21.97;;;14.23;;
4597;SDS011;62772;48.646;8.906;2023-10-19T23:24:53;20.10;;;13.13;;
4597;SDS011;62772;48.646;8.906;2023-10-19T23:29:56;18.53;;;12.10;;
4597;SDS011;62772;48.646;8.906;2023-10-19T23:34:57;21.33;;;13.03;;
4597;SDS011;62772;48.646;8.906;2023-10-19T23:39:58;19.67;;;12.80;;
4597;SDS011;62772;48.646;8.906;2023-10-19T23:44:58;17.80;;;11.80;;
4597;SDS011;62772;48.646;8.906;2023-10-19T23:49:59;15.20;;;10.23;;
4597;SDS011;62772;48.646;8.906;2023-10-19T23:55:00;17.10;;;11.37;;
